Time;durP1;ratioP1;P1;durP2;ratioP2;P2;SDS_P1;SDS_P2;PMS_P1;PMS_P2;Temp;Humidity;BMP_temperature;BMP_pressure;BME280_temperature;BME280_humidity;BME280_pressure;Samples;Min_cycle;Max_cycle;Signal;HPM_P1;HPM_P2
2022/12/24 00:02:03;;;;;;;64.13;21.58;;;;;;;;;;5084109;28;20048;-66
2022/12/24 00:04:29;;;;;;;43.40;20.67;;;;;;;;;;5062040;28;20043;-67
2022/12/24 00:06:56;;;;;;;47.42;20.25;;;;;;;;;;5061324;28;20039;-67
2022/12/24 00:09:22;;;;;;;46.80;19.35;;;;;;;;;;5069584;27;20105;-67
2022/12/24 00:11:48;;;;;;;50.25;21.45;;;;;;;;;;5102032;28;20080;-66
2022/12/24 00:14:14;;;;;;;55.97;21.42;;;;;;;;;;5080545;28;20548;-67
2022/12/24 00:16:40;;;;;;;57.28;21.55;;;;;;;;;;5098309;28;20078;-66
2022/12/24 00:19:06;;;;;;;63.78;21.75;;;;;;;;;;5092786;28;20345;-67
2022/12/24 00:21:33;;;;;;;52.17;21.45;;;;;;;;;;5094448;28;20044;-67
2022/12/24 00:23:59;;;;;;;54.35;22.27;;;;;;;;;;5097400;28;20049;-67
2022/12/24 00:26:25;;;;;;;65.22;21.75;;;;;;;;;;5100488;28;20510;-67
2022/12/24 00:28:51;;;;;;;49.90;21.92;;;;;;;;;;5099357;28;20170;-67
2022/12/24 00:31:18;;;;;;;53.17;21.80;;;;;;;;;;5097936;28;20047;-66
2022/12/24 00:33:46;;;;;;;58.28;22.70;;;;;;;;;;5093136;28;20625;-66
2022/12/24 00:36:12;;;;;;;70.00;23.58;;;;;;;;;;5094543;28;20032;-67
2022/12/24 00:38:38;;;;;;;62.80;23.00;;;;;;;;;;5097673;28;20065;-66
2022/12/24 00:41:22;;;;;;;61.80;22.50;;;;;;;;;;5089255;28;20104;-67
2022/12/24 00:43:48;;;;;;;;;;;;;;;;;;5081905;28;20455;-67
2022/12/24 00:46:15;;;;;;;50.85;21.42;;;;;;;;;;5063114;28;21153;-67
2022/12/24 00:48:41;;;;;;;68.28;23.00;;;;;;;;;;5079502;28;20078;-67
2022/12/24 00:51:07;;;;;;;67.82;23.10;;;;;;;;;;5061274;28;20802;-67
2022/12/24 00:53:33;;;;;;;56.90;21.48;;;;;;;;;;5078846;28;20036;-67
2022/12/24 00:55:59;;;;;;;52.47;22.55;;;;;;;;;;5079997;28;20056;-67
2022/12/24 00:58:25;;;;;;;66.38;23.50;;;;;;;;;;5077171;28;20058;-67
2022/12/24 01:00:51;;;;;;;48.47;21.00;;;;;;;;;;5081344;28;20104;-67
2022/12/24 01:03:18;;;;;;;67.43;22.73;;;;;;;;;;5061848;28;20614;-67
2022/12/24 01:05:44;;;;;;;52.25;22.55;;;;;;;;;;5090794;28;20082;-66
2022/12/24 01:08:10;;;;;;;80.18;23.85;;;;;;;;;;5066793;28;20443;-67
2022/12/24 01:10:36;;;;;;;81.70;24.83;;;;;;;;;;5101682;28;20036;-67
2022/12/24 01:13:03;;;;;;;69.85;23.40;;;;;;;;;;5091194;28;20105;-67
2022/12/24 01:15:29;;;;;;;58.13;22.58;;;;;;;;;;5092193;28;20506;-67
2022/12/24 01:17:57;;;;;;;65.53;22.85;;;;;;;;;;5092524;28;20040;-67
2022/12/24 01:20:25;;;;;;;75.90;25.40;;;;;;;;;;5110552;28;20414;-66
2022/12/24 01:22:52;;;;;;;53.40;22.70;;;;;;;;;;5109881;28;20056;-67
2022/12/24 01:25:18;;;;;;;52.70;22.60;;;;;;;;;;5110877;28;20494;-66
2022/12/24 01:27:44;;;;;;;56.35;23.75;;;;;;;;;;5108586;28;20050;-66
2022/12/24 01:30:13;;;;;;;48.60;21.63;;;;;;;;;;5075422;28;20040;-67
2022/12/24 01:32:39;;;;;;;55.47;22.67;;;;;;;;;;5093785;28;20089;-66
2022/12/24 01:35:06;;;;;;;52.70;21.77;;;;;;;;;;5109187;28;20075;-66
2022/12/24 01:37:32;;;;;;;52.65;21.73;;;;;;;;;;5109692;28;20042;-66
2022/12/24 01:45:35;;;;;;;59.60;23.27;;;;;;;;;;5088021;28;20084;-66
2022/12/24 01:48:01;;;;;;;60.25;22.17;;;;;;;;;;5082725;28;20085;-66
2022/12/24 01:50:29;;;;;;;58.75;22.40;;;;;;;;;;5085276;28;20065;-67
2022/12/24 01:52:56;;;;;;;63.00;22.45;;;;;;;;;;5083575;28;20078;-66
2022/12/24 01:55:23;;;;;;;61.10;22.55;;;;;;;;;;5088798;28;20047;-67
2022/12/24 01:57:52;;;;;;;56.22;23.98;;;;;;;;;;5083657;28;20083;-67
2022/12/24 02:00:19;;;;;;;53.75;21.67;;;;;;;;;;5049074;28;20058;-67
2022/12/24 02:02:47;;;;;;;60.95;22.98;;;;;;;;;;5083144;28;20048;-67
2022/12/24 02:05:16;;;;;;;60.72;22.83;;;;;;;;;;5087724;28;20447;-66
2022/12/24 02:07:42;;;;;;;62.83;23.58;;;;;;;;;;5065504;28;20498;-67
2022/12/24 02:10:10;;;;;;;60.38;23.33;;;;;;;;;;5076418;27;20035;-67
2022/12/24 02:12:37;;;;;;;66.28;24.65;;;;;;;;;;5089152;28;20036;-67
2022/12/24 02:15:04;;;;;;;59.58;24.00;;;;;;;;;;5085493;28;20051;-66
2022/12/24 02:17:32;;;;;;;54.33;23.08;;;;;;;;;;5101376;28;20031;-66
2022/12/24 02:20:07;;;;;;;61.83;24.20;;;;;;;;;;5100308;28;20063;-67
2022/12/24 02:22:40;;;;;;;67.25;23.85;;;;;;;;;;5101714;28;20479;-67
2022/12/24 02:25:22;;;;;;;63.67;23.60;;;;;;;;;;5080514;28;20513;-66
2022/12/24 02:27:49;;;;;;;63.17;24.50;;;;;;;;;;5081212;28;20804;-66
2022/12/24 02:30:19;;;;;;;70.20;24.85;;;;;;;;;;5080291;28;20044;-67
2022/12/24 02:32:51;;;;;;;64.40;23.85;;;;;;;;;;5083564;28;20724;-67
2022/12/24 02:35:21;;;;;;;60.15;23.73;;;;;;;;;;5081641;28;20039;-67
2022/12/24 02:37:50;;;;;;;59.35;24.65;;;;;;;;;;5098933;28;20139;-66
2022/12/24 02:40:19;;;;;;;57.22;23.75;;;;;;;;;;5101640;28;20809;-67
2022/12/24 02:42:48;;;;;;;59.97;24.10;;;;;;;;;;5080595;28;20554;-67
2022/12/24 02:45:16;;;;;;;59.17;25.35;;;;;;;;;;5078736;28;20112;-67
2022/12/24 02:47:43;;;;;;;57.53;24.30;;;;;;;;;;5084362;28;20124;-67
2022/12/24 02:50:13;;;;;;;53.70;23.77;;;;;;;;;;5081948;28;20035;-67
2022/12/24 02:52:40;;;;;;;58.53;24.63;;;;;;;;;;5082841;28;20047;-67
2022/12/24 02:55:09;;;;;;;44.78;22.70;;;;;;;;;;5080696;28;20043;-67
2022/12/24 02:57:43;;;;;;;48.38;22.20;;;;;;;;;;5081163;28;20130;-67
2022/12/24 03:00:09;;;;;;;;;;;;;;;;;;5080972;28;20036;-67
2022/12/24 03:02:35;;;;;;;39.00;17.58;;;;;;;;;;5063450;28;19928;-67
2022/12/24 03:05:18;;;;;;;45.17;17.52;;;;;;;;;;5064344;28;20055;-67
2022/12/24 03:07:53;;;;;;;40.65;18.27;;;;;;;;;;5081830;28;20047;-67
2022/12/24 03:10:26;;;;;;;41.10;17.05;;;;;;;;;;5088029;28;20043;-67
2022/12/24 03:12:54;;;;;;;33.15;14.30;;;;;;;;;;5080655;28;20039;-67
2022/12/24 03:15:22;;;;;;;34.72;14.18;;;;;;;;;;5085257;28;20036;-67
2022/12/24 03:17:49;;;;;;;41.47;15.32;;;;;;;;;;5079727;28;20051;-67
2022/12/24 03:20:19;;;;;;;28.88;12.57;;;;;;;;;;5060753;28;20050;-67
2022/12/24 03:22:45;;;;;;;37.10;11.55;;;;;;;;;;5078454;28;20184;-67
2022/12/24 03:25:11;;;;;;;31.20;13.00;;;;;;;;;;5088539;28;20040;-67
2022/12/24 03:27:38;;;;;;;22.85;10.30;;;;;;;;;;5080913;28;20475;-67
2022/12/24 03:30:07;;;;;;;25.15;11.25;;;;;;;;;;5081772;28;20035;-67
2022/12/24 03:32:34;;;;;;;19.85;10.05;;;;;;;;;;5081556;28;20118;-67
2022/12/24 03:35:00;;;;;;;24.00;9.73;;;;;;;;;;5081704;28;20119;-67
2022/12/24 03:37:26;;;;;;;25.63;10.10;;;;;;;;;;5084574;28;20519;-67
2022/12/24 03:39:52;;;;;;;26.20;10.15;;;;;;;;;;5085823;28;20166;-67
2022/12/24 03:42:19;;;;;;;28.00;9.43;;;;;;;;;;5062218;28;20490;-67
2022/12/24 03:44:45;;;;;;;24.70;8.98;;;;;;;;;;5064142;28;20514;-67
2022/12/24 03:47:11;;;;;;;26.98;11.57;;;;;;;;;;5062640;28;20674;-67
2022/12/24 03:49:37;;;;;;;27.98;9.73;;;;;;;;;;5063047;28;20048;-67
2022/12/24 03:52:03;;;;;;;37.25;10.55;;;;;;;;;;5064500;28;20130;-67
2022/12/24 03:54:30;;;;;;;29.10;9.75;;;;;;;;;;5057810;28;20142;-67
2022/12/24 03:56:56;;;;;;;30.40;10.38;;;;;;;;;;5060168;28;20040;-67
2022/12/24 03:59:22;;;;;;;36.78;10.25;;;;;;;;;;5060463;28;21731;-67
2022/12/24 04:01:49;;;;;;;40.35;10.27;;;;;;;;;;5058473;28;20056;-67
2022/12/24 04:04:15;;;;;;;39.20;12.45;;;;;;;;;;5059558;28;20047;-67
2022/12/24 04:06:41;;;;;;;36.00;10.75;;;;;;;;;;5060921;28;20181;-67
2022/12/24 04:09:07;;;;;;;50.03;10.38;;;;;;;;;;5065406;28;20794;-67
2022/12/24 04:11:33;;;;;;;38.75;10.15;;;;;;;;;;5074714;28;20067;-67
2022/12/24 04:14:00;;;;;;;51.90;11.48;;;;;;;;;;5079240;28;20093;-67
2022/12/24 04:16:26;;;;;;;50.55;9.82;;;;;;;;;;5077872;28;20031;-67
2022/12/24 04:18:52;;;;;;;58.53;8.88;;;;;;;;;;5077570;28;20051;-67
2022/12/24 04:21:18;;;;;;;43.92;9.13;;;;;;;;;;5075778;28;20106;-67
2022/12/24 04:23:45;;;;;;;47.50;7.45;;;;;;;;;;5076687;28;20102;-66
2022/12/24 04:26:12;;;;;;;60.38;9.30;;;;;;;;;;5078063;28;22015;-67
2022/12/24 04:28:39;;;;;;;46.45;7.68;;;;;;;;;;5094076;28;20077;-67
2022/12/24 04:31:06;;;;;;;44.97;7.45;;;;;;;;;;5075653;28;20047;-67
2022/12/24 04:33:34;;;;;;;56.78;7.35;;;;;;;;;;5075673;28;20040;-67
2022/12/24 04:36:01;;;;;;;50.60;7.88;;;;;;;;;;5076223;28;20387;-67
2022/12/24 04:38:27;;;;;;;48.25;7.43;;;;;;;;;;5075168;28;20043;-67
2022/12/24 04:40:59;;;;;;;56.60;9.13;;;;;;;;;;5068533;28;20133;-67
2022/12/24 04:43:25;;;;;;;49.15;8.77;;;;;;;;;;5078790;28;20043;-67
2022/12/24 04:45:52;;;;;;;49.53;7.07;;;;;;;;;;5085616;28;20051;-67
2022/12/24 04:48:18;;;;;;;46.95;7.13;;;;;;;;;;5078306;28;20054;-67
2022/12/24 04:50:44;;;;;;;59.42;7.40;;;;;;;;;;5061378;28;20446;-67
2022/12/24 04:53:13;;;;;;;69.75;9.70;;;;;;;;;;5061080;28;20420;-67
2022/12/24 04:55:43;;;;;;;51.65;9.43;;;;;;;;;;5078775;28;20127;-67
2022/12/24 04:58:09;;;;;;;54.03;6.65;;;;;;;;;;5077603;28;20181;-67
2022/12/24 05:00:35;;;;;;;59.08;8.30;;;;;;;;;;5062030;28;20447;-67
2022/12/24 05:03:02;;;;;;;70.18;8.80;;;;;;;;;;5062229;28;20116;-67
2022/12/24 05:05:28;;;;;;;51.08;9.10;;;;;;;;;;5061887;28;20441;-67
2022/12/24 05:07:54;;;;;;;53.28;9.23;;;;;;;;;;5059627;28;20056;-67
2022/12/24 05:10:21;;;;;;;51.10;7.20;;;;;;;;;;5090845;28;20035;-67
2022/12/24 05:12:47;;;;;;;69.28;8.40;;;;;;;;;;5066732;28;20046;-67
2022/12/24 05:15:13;;;;;;;53.05;8.57;;;;;;;;;;5088662;28;20225;-67
2022/12/24 05:17:40;;;;;;;57.78;8.38;;;;;;;;;;5068372;28;20067;-67
2022/12/24 05:20:06;;;;;;;59.30;8.13;;;;;;;;;;5081520;28;20081;-67
2022/12/24 05:28:02;;;;;;;60.78;8.93;;;;;;;;;;5082974;28;20514;-67
2022/12/24 05:30:28;;;;;;;71.40;9.20;;;;;;;;;;5086604;28;20710;-67
2022/12/24 05:32:54;;;;;;;55.08;7.13;;;;;;;;;;5082809;28;20096;-67
2022/12/24 05:35:21;;;;;;;63.50;8.02;;;;;;;;;;5086670;28;20127;-67
2022/12/24 05:37:47;;;;;;;48.83;6.95;;;;;;;;;;5083811;28;20044;-67
2022/12/24 05:40:13;;;;;;;50.97;8.48;;;;;;;;;;5081577;28;20048;-67
2022/12/24 05:42:39;;;;;;;56.00;8.32;;;;;;;;;;5079758;28;20132;-67
2022/12/24 05:45:06;;;;;;;53.42;7.45;;;;;;;;;;5066205;28;20057;-67
2022/12/24 05:47:32;;;;;;;62.45;8.70;;;;;;;;;;5062955;28;20048;-67
2022/12/24 05:49:58;;;;;;;50.60;8.55;;;;;;;;;;5080765;28;20047;-67
2022/12/24 05:52:24;;;;;;;51.80;7.97;;;;;;;;;;5062476;28;20052;-67
2022/12/24 05:54:50;;;;;;;66.43;7.88;;;;;;;;;;5085145;28;20051;-67
2022/12/24 05:57:16;;;;;;;60.97;7.88;;;;;;;;;;5081782;28;20067;-67
2022/12/24 05:59:43;;;;;;;72.93;8.98;;;;;;;;;;5095663;28;20046;-67
2022/12/24 06:02:09;;;;;;;56.22;7.80;;;;;;;;;;5077681;28;20245;-67
2022/12/24 06:04:35;;;;;;;56.13;7.38;;;;;;;;;;5075799;28;20047;-67
2022/12/24 06:07:01;;;;;;;45.15;8.30;;;;;;;;;;5079883;28;20040;-67
2022/12/24 06:09:27;;;;;;;55.60;7.45;;;;;;;;;;5078959;28;20088;-67
2022/12/24 06:11:53;;;;;;;49.38;8.18;;;;;;;;;;5098298;28;21663;-67
2022/12/24 06:14:19;;;;;;;56.60;7.10;;;;;;;;;;5101733;28;20398;-67
2022/12/24 06:16:46;;;;;;;64.80;7.13;;;;;;;;;;5079204;28;20115;-67
2022/12/24 06:19:12;;;;;;;55.67;8.30;;;;;;;;;;5101522;28;20142;-67
2022/12/24 06:21:38;;;;;;;53.60;8.60;;;;;;;;;;5077798;28;20060;-67
2022/12/24 06:24:05;;;;;;;52.95;7.10;;;;;;;;;;5080043;28;20134;-67
2022/12/24 06:26:31;;;;;;;42.35;7.78;;;;;;;;;;5079932;28;20044;-67
2022/12/24 06:28:57;;;;;;;55.60;6.95;;;;;;;;;;5096244;28;20051;-67
2022/12/24 06:31:23;;;;;;;63.70;8.07;;;;;;;;;;5097015;28;20403;-67
2022/12/24 06:33:50;;;;;;;59.83;7.93;;;;;;;;;;5098763;28;20058;-67
2022/12/24 06:36:18;;;;;;;54.30;8.32;;;;;;;;;;5098151;28;20525;-67
2022/12/24 06:38:44;;;;;;;62.65;8.77;;;;;;;;;;5099498;28;20066;-67
2022/12/24 06:41:10;;;;;;;54.13;6.63;;;;;;;;;;5081162;28;20111;-67
2022/12/24 06:43:37;;;;;;;60.25;7.60;;;;;;;;;;5097517;28;20055;-67
2022/12/24 06:46:03;;;;;;;55.65;7.32;;;;;;;;;;5099942;28;20082;-67
2022/12/24 06:48:29;;;;;;;58.60;7.15;;;;;;;;;;5096049;28;20067;-67
2022/12/24 06:50:55;;;;;;;62.05;7.47;;;;;;;;;;5077675;28;20112;-67
2022/12/24 06:53:22;;;;;;;62.42;7.15;;;;;;;;;;5097469;28;20044;-67
2022/12/24 06:55:48;;;;;;;51.70;8.25;;;;;;;;;;5096661;28;20039;-67
2022/12/24 06:58:14;;;;;;;57.25;7.68;;;;;;;;;;5096517;28;20053;-67
2022/12/24 07:00:40;;;;;;;57.70;7.60;;;;;;;;;;5078882;28;20134;-67
2022/12/24 07:03:06;;;;;;;47.10;7.30;;;;;;;;;;5095337;28;20051;-67
2022/12/24 07:05:32;;;;;;;58.80;7.35;;;;;;;;;;5097395;28;20051;-66
2022/12/24 07:07:59;;;;;;;59.80;7.75;;;;;;;;;;5093912;28;20513;-65
2022/12/24 07:10:25;;;;;;;54.88;6.75;;;;;;;;;;5094217;28;20636;-65
2022/12/24 07:12:51;;;;;;;58.60;9.05;;;;;;;;;;5075936;28;20047;-65
2022/12/24 07:15:17;;;;;;;51.53;6.90;;;;;;;;;;5094707;28;20043;-65
2022/12/24 07:17:43;;;;;;;44.53;6.82;;;;;;;;;;5077103;28;20134;-65
2022/12/24 07:20:13;;;;;;;57.75;7.20;;;;;;;;;;5092466;28;20192;-66
2022/12/24 07:22:39;;;;;;;56.65;7.72;;;;;;;;;;5077605;28;20039;-65
2022/12/24 07:25:06;;;;;;;66.47;8.52;;;;;;;;;;5099740;28;20044;-66
2022/12/24 07:27:32;;;;;;;57.30;7.07;;;;;;;;;;5097782;28;20043;-66
2022/12/24 07:29:58;;;;;;;53.22;6.72;;;;;;;;;;5099075;28;20133;-66
2022/12/24 07:32:24;;;;;;;56.95;7.53;;;;;;;;;;5095988;28;20056;-66
2022/12/24 07:34:50;;;;;;;61.92;7.28;;;;;;;;;;5068763;28;20047;-66
2022/12/24 07:37:17;;;;;;;50.88;7.15;;;;;;;;;;5095141;28;20067;-66
2022/12/24 07:39:43;;;;;;;51.33;6.65;;;;;;;;;;5074367;28;20075;-66
2022/12/24 07:42:09;;;;;;;40.47;7.13;;;;;;;;;;5093900;28;20047;-66
2022/12/24 07:44:35;;;;;;;55.65;8.63;;;;;;;;;;5074129;28;20108;-66
2022/12/24 07:47:02;;;;;;;51.42;7.47;;;;;;;;;;5092547;28;20043;-66
2022/12/24 07:49:28;;;;;;;58.80;7.70;;;;;;;;;;5077101;28;20097;-65
2022/12/24 07:51:54;;;;;;;56.50;8.25;;;;;;;;;;5094164;28;20096;-65
2022/12/24 07:54:20;;;;;;;65.13;8.23;;;;;;;;;;5073489;28;20142;-66
2022/12/24 07:56:46;;;;;;;59.63;7.78;;;;;;;;;;5090326;28;20040;-65
2022/12/24 07:59:13;;;;;;;56.83;7.20;;;;;;;;;;5058373;28;20459;-65
2022/12/24 08:01:39;;;;;;;67.97;7.47;;;;;;;;;;5091083;28;20047;-65
2022/12/24 08:04:06;;;;;;;50.33;7.28;;;;;;;;;;5075995;28;20367;-65
2022/12/24 08:06:32;;;;;;;62.92;7.55;;;;;;;;;;5093420;28;20084;-65
2022/12/24 08:08:58;;;;;;;67.63;8.93;;;;;;;;;;5095562;28;20051;-65
2022/12/24 08:11:24;;;;;;;60.45;7.47;;;;;;;;;;5093513;28;20031;-65
2022/12/24 08:13:50;;;;;;;54.58;8.13;;;;;;;;;;5095212;28;20043;-65
2022/12/24 08:16:16;;;;;;;64.45;9.32;;;;;;;;;;5094300;28;20446;-64
2022/12/24 08:18:43;;;;;;;61.83;7.95;;;;;;;;;;5096639;28;20073;-65
2022/12/24 08:21:09;;;;;;;57.80;7.53;;;;;;;;;;5094177;28;20128;-65
2022/12/24 08:23:36;;;;;;;65.82;8.07;;;;;;;;;;5091600;28;20054;-65
2022/12/24 08:26:03;;;;;;;57.42;7.65;;;;;;;;;;5094084;28;20048;-65
2022/12/24 08:28:29;;;;;;;57.97;8.88;;;;;;;;;;5095138;28;20120;-66
2022/12/24 08:30:55;;;;;;;74.13;8.63;;;;;;;;;;5076279;28;20050;-66
2022/12/24 08:33:21;;;;;;;63.70;8.38;;;;;;;;;;5081677;28;20120;-66
2022/12/24 08:35:48;;;;;;;58.10;9.40;;;;;;;;;;5095149;28;20399;-66
2022/12/24 08:38:15;;;;;;;59.17;8.15;;;;;;;;;;5097207;28;20215;-66
2022/12/24 08:40:42;;;;;;;54.00;8.95;;;;;;;;;;5074462;28;20479;-66
2022/12/24 08:43:08;;;;;;;65.75;9.35;;;;;;;;;;5097022;28;20060;-66
2022/12/24 08:45:34;;;;;;;57.53;10.07;;;;;;;;;;5093694;28;20086;-66
2022/12/24 08:48:00;;;;;;;48.42;9.18;;;;;;;;;;5094530;28;20042;-66
2022/12/24 08:50:27;;;;;;;51.63;7.97;;;;;;;;;;5074651;28;20032;-66
2022/12/24 08:52:53;;;;;;;52.63;8.00;;;;;;;;;;5075482;28;20380;-66
2022/12/24 08:55:19;;;;;;;53.65;7.97;;;;;;;;;;5073667;28;20133;-66
2022/12/24 08:57:46;;;;;;;58.63;7.97;;;;;;;;;;5074874;28;20048;-66
2022/12/24 09:00:12;;;;;;;55.40;9.00;;;;;;;;;;5090906;28;20040;-66
2022/12/24 09:02:39;;;;;;;48.63;6.78;;;;;;;;;;5073577;28;20059;-66
2022/12/24 09:05:05;;;;;;;55.90;8.07;;;;;;;;;;5076340;28;20051;-66
2022/12/24 09:07:31;;;;;;;61.00;8.68;;;;;;;;;;5078368;28;20046;-66
2022/12/24 09:09:57;;;;;;;77.40;9.77;;;;;;;;;;5075284;28;20135;-66
2022/12/24 09:12:24;;;;;;;49.10;6.63;;;;;;;;;;5093349;28;20051;-65
2022/12/24 09:14:50;;;;;;;57.80;8.15;;;;;;;;;;5075243;28;20071;-65
2022/12/24 09:17:16;;;;;;;54.45;8.95;;;;;;;;;;5077034;28;20081;-65
2022/12/24 09:19:43;;;;;;;73.22;8.30;;;;;;;;;;5076137;28;20055;-65
2022/12/24 09:22:09;;;;;;;62.22;8.27;;;;;;;;;;5077948;28;20503;-65
2022/12/24 09:24:35;;;;;;;58.15;7.90;;;;;;;;;;5095658;28;20080;-65
2022/12/24 09:27:02;;;;;;;54.40;8.73;;;;;;;;;;5078842;28;20048;-65
2022/12/24 09:29:29;;;;;;;60.03;9.05;;;;;;;;;;5082395;28;20051;-65
2022/12/24 09:31:56;;;;;;;65.03;9.70;;;;;;;;;;5098075;28;20047;-64
2022/12/24 09:34:23;;;;;;;61.28;9.18;;;;;;;;;;5081444;28;20051;-65
2022/12/24 09:36:50;;;;;;;62.45;10.55;;;;;;;;;;5098386;28;20048;-65
2022/12/24 09:39:17;;;;;;;47.72;8.25;;;;;;;;;;5080516;28;20051;-66
2022/12/24 09:41:53;;;;;;;50.58;9.95;;;;;;;;;;5101386;28;20088;-66
2022/12/24 09:44:22;;;;;;;58.65;7.97;;;;;;;;;;5100640;28;20142;-66
2022/12/24 09:46:49;;;;;;;51.65;9.05;;;;;;;;;;5095355;28;20040;-65
2022/12/24 09:49:18;;;;;;;57.22;9.10;;;;;;;;;;5095818;28;20055;-68
2022/12/24 09:51:46;;;;;;;65.97;7.68;;;;;;;;;;5095899;28;20086;-66
2022/12/24 09:54:16;;;;;;;56.25;7.70;;;;;;;;;;5098674;28;20043;-66
2022/12/24 09:56:45;;;;;;;53.30;7.90;;;;;;;;;;5099630;28;20364;-66
2022/12/24 09:59:13;;;;;;;54.38;7.22;;;;;;;;;;5103265;28;20386;-66
2022/12/24 10:01:40;;;;;;;59.03;8.23;;;;;;;;;;5081959;28;20423;-66
2022/12/24 10:04:12;;;;;;;50.88;8.77;;;;;;;;;;5089127;28;20043;-66
2022/12/24 10:06:39;;;;;;;47.33;7.97;;;;;;;;;;5104236;28;20042;-66
2022/12/24 10:09:11;;;;;;;51.25;9.18;;;;;;;;;;5085422;28;20044;-66
2022/12/24 10:12:00;;;;;;;49.92;8.38;;;;;;;;;;5106832;28;20140;-65
2022/12/24 10:14:26;;;;;;;62.38;8.85;;;;;;;;;;5087672;28;20051;-65
2022/12/24 10:16:58;;;;;;;46.78;8.55;;;;;;;;;;5107151;28;20148;-65
2022/12/24 10:19:33;;;;;;;51.05;8.57;;;;;;;;;;5089082;28;20122;-66
2022/12/24 10:22:08;;;;;;;51.63;7.50;;;;;;;;;;5107297;28;20072;-65
2022/12/24 10:24:35;;;;;;;70.25;10.82;;;;;;;;;;5078495;28;20074;-65
2022/12/24 10:27:05;;;;;;;45.42;7.47;;;;;;;;;;5081052;28;20087;-72
2022/12/24 10:29:35;;;;;;;51.88;8.15;;;;;;;;;;5074967;28;20059;-65
2022/12/24 10:32:04;;;;;;;56.22;7.80;;;;;;;;;;5097841;28;20058;-65
2022/12/24 10:34:32;;;;;;;58.08;8.20;;;;;;;;;;5079841;28;20494;-65
2022/12/24 10:37:01;;;;;;;51.72;7.65;;;;;;;;;;5094055;28;20472;-65
2022/12/24 10:39:28;;;;;;;48.10;7.60;;;;;;;;;;5096682;28;20475;-64
2022/12/24 10:41:56;;;;;;;47.50;7.93;;;;;;;;;;5096416;28;20048;-64
2022/12/24 10:44:24;;;;;;;53.22;8.02;;;;;;;;;;5094564;28;20067;-64
2022/12/24 10:46:50;;;;;;;36.50;6.68;;;;;;;;;;5099405;28;20317;-65
2022/12/24 10:49:18;;;;;;;65.93;9.45;;;;;;;;;;5096799;28;20047;-65
2022/12/24 10:51:45;;;;;;;56.60;8.60;;;;;;;;;;5095696;28;20128;-64
2022/12/24 10:54:13;;;;;;;44.65;6.88;;;;;;;;;;5097357;28;20406;-64
2022/12/24 10:56:41;;;;;;;44.83;6.55;;;;;;;;;;5096017;28;20452;-64
2022/12/24 10:59:21;;;;;;;47.40;9.27;;;;;;;;;;5079227;28;20051;-65
2022/12/24 11:01:49;;;;;;;48.92;8.32;;;;;;;;;;5080687;28;20035;-64
2022/12/24 11:04:16;;;;;;;58.08;9.10;;;;;;;;;;5059315;28;20048;-64
2022/12/24 11:07:06;;;;;;;42.65;6.32;;;;;;;;;;5098930;28;20128;-64
2022/12/24 11:09:33;;;;;;;37.08;6.57;;;;;;;;;;5097743;28;20062;-68
2022/12/24 11:12:01;;;;;;;42.03;6.43;;;;;;;;;;5102549;28;20055;-64
2022/12/24 11:14:29;;;;;;;38.58;6.82;;;;;;;;;;5096024;28;20036;-65
2022/12/24 11:16:56;;;;;;;36.80;6.63;;;;;;;;;;5094424;28;20036;-65
2022/12/24 11:19:28;;;;;;;37.55;6.70;;;;;;;;;;5091066;28;20097;-65
2022/12/24 11:21:59;;;;;;;41.17;5.95;;;;;;;;;;5093687;28;20754;-66
2022/12/24 11:24:27;;;;;;;39.88;5.95;;;;;;;;;;5098365;28;20067;-65
2022/12/24 11:26:53;;;;;;;41.53;5.85;;;;;;;;;;5074505;28;20047;-66
2022/12/24 11:29:21;;;;;;;47.28;6.88;;;;;;;;;;5099265;28;20385;-66
2022/12/24 11:31:48;;;;;;;33.25;6.53;;;;;;;;;;5096494;28;20082;-66
2022/12/24 11:34:21;;;;;;;39.88;7.68;;;;;;;;;;5095914;28;20028;-66
2022/12/24 11:36:48;;;;;;;37.13;5.90;;;;;;;;;;5079398;28;20131;-66
2022/12/24 11:39:18;;;;;;;35.80;5.30;;;;;;;;;;5097382;28;20130;-67
2022/12/24 11:41:45;;;;;;;33.20;5.25;;;;;;;;;;5076906;28;20046;-66
2022/12/24 11:44:11;;;;;;;35.25;5.50;;;;;;;;;;5079583;28;20059;-66
2022/12/24 11:46:40;;;;;;;31.95;4.80;;;;;;;;;;5095314;28;21209;-66
2022/12/24 11:49:06;;;;;;;26.08;4.25;;;;;;;;;;5097702;28;20031;-65
2022/12/24 11:51:32;;;;;;;29.75;4.60;;;;;;;;;;5097537;28;20040;-66
2022/12/24 11:54:07;;;;;;;29.08;5.72;;;;;;;;;;5078416;28;20459;-66
2022/12/24 11:56:37;;;;;;;28.83;4.85;;;;;;;;;;5099388;28;20047;-66
2022/12/24 11:59:09;;;;;;;26.63;4.72;;;;;;;;;;5098659;28;21886;-66
2022/12/24 12:01:38;;;;;;;26.45;4.60;;;;;;;;;;5099866;28;20934;-66
2022/12/24 12:04:10;;;;;;;28.35;5.03;;;;;;;;;;5102008;28;20055;-68
2022/12/24 12:06:39;;;;;;;29.73;4.30;;;;;;;;;;5079677;28;20040;-76
2022/12/24 12:09:07;;;;;;;27.45;4.63;;;;;;;;;;5092992;28;20177;-66
2022/12/24 12:11:34;;;;;;;28.10;5.70;;;;;;;;;;5093796;28;20074;-65
2022/12/24 12:14:01;;;;;;;27.65;5.13;;;;;;;;;;5093161;28;20083;-65
2022/12/24 12:17:08;;;;;;;30.10;4.85;;;;;;;;;;5095385;28;20122;-65
2022/12/24 12:19:42;;;;;;;37.95;4.90;;;;;;;;;;5083320;28;20138;-65
2022/12/24 12:22:14;;;;;;;32.38;4.45;;;;;;;;;;5084256;28;20560;-65
2022/12/24 12:24:45;;;;;;;31.02;4.93;;;;;;;;;;5102965;28;20050;-65
2022/12/24 12:27:26;;;;;;;35.45;5.28;;;;;;;;;;5104563;28;20043;-75
2022/12/24 12:29:57;;;;;;;28.77;5.28;;;;;;;;;;5083350;28;20055;-66
2022/12/24 12:32:26;;;;;;;29.13;5.75;;;;;;;;;;5103176;28;20045;-66
2022/12/24 12:34:59;;;;;;;30.85;5.53;;;;;;;;;;5103122;28;20048;-66
2022/12/24 12:37:30;;;;;;;26.25;4.15;;;;;;;;;;5084652;28;20044;-66
2022/12/24 12:39:56;;;;;;;34.47;6.00;;;;;;;;;;5102629;28;20092;-66
2022/12/24 12:42:29;;;;;;;31.60;4.22;;;;;;;;;;5102577;28;20158;-66
2022/12/24 12:45:05;;;;;;;37.70;5.47;;;;;;;;;;5104737;28;20051;-66
2022/12/24 12:47:41;;;;;;;28.77;4.63;;;;;;;;;;5102318;28;20088;-66
2022/12/24 12:50:17;;;;;;;27.60;4.70;;;;;;;;;;5083527;28;20055;-66
2022/12/24 12:52:43;;;;;;;28.00;5.40;;;;;;;;;;5103599;28;20068;-66
2022/12/24 12:55:23;;;;;;;28.23;4.47;;;;;;;;;;5104164;28;20104;-66
2022/12/24 12:57:50;;;;;;;25.55;4.88;;;;;;;;;;5085178;28;20036;-65
2022/12/24 13:00:18;;;;;;;27.48;4.97;;;;;;;;;;5083316;28;20077;-65
2022/12/24 13:02:44;;;;;;;25.92;4.28;;;;;;;;;;5085179;28;20138;-66
2022/12/24 13:05:16;;;;;;;37.15;4.50;;;;;;;;;;5103341;28;20101;-66
2022/12/24 13:07:59;;;;;;;30.30;5.10;;;;;;;;;;5103059;28;20047;-66
2022/12/24 13:10:36;;;;;;;24.20;4.25;;;;;;;;;;5084313;28;20471;-65
2022/12/24 13:13:11;;;;;;;27.25;3.80;;;;;;;;;;5102475;28;20479;-65
2022/12/24 13:15:56;;;;;;;30.85;5.13;;;;;;;;;;5102407;28;20430;-65
2022/12/24 13:18:39;;;;;;;23.50;4.43;;;;;;;;;;5103395;28;20048;-65
2022/12/24 13:21:15;;;;;;;24.75;4.25;;;;;;;;;;5085760;28;20212;-65
2022/12/24 13:23:41;;;;;;;29.08;4.70;;;;;;;;;;5095469;28;20039;-67
2022/12/24 13:26:10;;;;;;;28.38;4.95;;;;;;;;;;5058309;28;20043;-66
2022/12/24 13:28:37;;;;;;;24.08;4.63;;;;;;;;;;5093540;28;20047;-66
2022/12/24 13:31:18;;;;;;;28.00;4.88;;;;;;;;;;5074873;28;20056;-65
2022/12/24 13:33:44;;;;;;;19.33;3.75;;;;;;;;;;5093383;28;20063;-66
2022/12/24 13:36:15;;;;;;;32.85;4.85;;;;;;;;;;5074822;28;20071;-65
2022/12/24 13:38:46;;;;;;;35.60;4.45;;;;;;;;;;5091574;28;20048;-65
2022/12/24 13:41:31;;;;;;;26.10;3.80;;;;;;;;;;5095534;28;20468;-66
2022/12/24 13:44:09;;;;;;;25.77;4.78;;;;;;;;;;5075110;28;20050;-65
2022/12/24 13:46:50;;;;;;;18.58;4.10;;;;;;;;;;5073676;28;20468;-65
2022/12/24 13:49:18;;;;;;;19.88;3.72;;;;;;;;;;5093169;28;20040;-65
2022/12/24 13:51:45;;;;;;;25.27;4.60;;;;;;;;;;5076586;28;20453;-65
2022/12/24 13:54:13;;;;;;;23.52;4.90;;;;;;;;;;5095437;28;20058;-65
2022/12/24 13:56:41;;;;;;;42.50;4.90;;;;;;;;;;5094384;28;20044;-66
2022/12/24 13:59:11;;;;;;;22.17;4.53;;;;;;;;;;5073682;28;20517;-65
2022/12/24 14:01:38;;;;;;;28.85;3.90;;;;;;;;;;5095500;28;20043;-65
2022/12/24 14:04:07;;;;;;;25.40;4.75;;;;;;;;;;5074624;28;20139;-65
2022/12/24 14:06:34;;;;;;;27.42;3.95;;;;;;;;;;5083094;28;20050;-65
2022/12/24 14:09:08;;;;;;;28.08;4.53;;;;;;;;;;5085810;28;20122;-65
2022/12/24 14:11:54;;;;;;;19.52;4.57;;;;;;;;;;5106516;28;20110;-65
2022/12/24 14:14:25;;;;;;;23.35;4.30;;;;;;;;;;5087357;28;20043;-65
2022/12/24 14:16:52;;;;;;;26.73;4.70;;;;;;;;;;5108211;28;20059;-65
2022/12/24 14:19:20;;;;;;;40.97;5.65;;;;;;;;;;5072923;28;20456;-65
2022/12/24 14:21:56;;;;;;;29.00;4.20;;;;;;;;;;5106007;28;20038;-65
2022/12/24 14:24:25;;;;;;;34.47;4.63;;;;;;;;;;5107967;28;20055;-65
2022/12/24 14:26:54;;;;;;;29.95;5.40;;;;;;;;;;5107147;28;20051;-65
2022/12/24 14:29:32;;;;;;;27.30;5.50;;;;;;;;;;5107327;28;20360;-64
2022/12/24 14:32:03;;;;;;;27.23;4.38;;;;;;;;;;5107620;28;20051;-65
2022/12/24 14:34:29;;;;;;;31.45;7.07;;;;;;;;;;5105451;28;20048;-64
2022/12/24 14:36:55;;;;;;;20.77;4.18;;;;;;;;;;5086022;28;20114;-65
2022/12/24 14:39:30;;;;;;;27.85;5.15;;;;;;;;;;5098791;28;20139;-65
2022/12/24 14:42:04;;;;;;;21.63;4.07;;;;;;;;;;5096529;28;20044;-64
2022/12/24 14:44:36;;;;;;;30.38;5.63;;;;;;;;;;5096061;28;20724;-78